Lammy — PBRE — position and weather

sailwx.info

Track history (hours):
 
Tides and Currents Weather Stations Pressure Air Temp Water Temp Dewpoint Dewpoint Depression Visibility Wind Speed Wind Dir Waves Ship Positions

Lammy

Last reported at 2014-Aug-19 23:33 UTC. Time now 2014-Aug-20 12:46 UTC.
Position N 51°38' E 002°28'.

Length 95 m; draft 5.8 m.

Type: Cargo ship. MMSI: 245391000.

Date/timePositionNaut miles runAvg speedWind from/ knotsBaromVisibWave heightAir tempDewpointWater temp
2014-Aug-19 23:33N 51°38' E 002°28'1211.1
2014-Aug-19 22:26N 51°28' E 002°16'1011.5
2014-Aug-19 21:33N 51°19' E 002°08'1111.4
2014-Aug-19 20:33N 51°11' E 001°55'5911.8
2014-Aug-19 15:33N 50°30' E 000°48'19927.6
2014-Aug-19 08:21N 53°44' W 000°16'  
2014-Aug-16 01:17N 50°24' W 001°24'7 9.1
2014-Aug-16 00:33N 50°25' W 001°13'17 8.4
2014-Aug-15 22:33N 50°28' W 000°47'3711.8
2014-Aug-15 19:23N 50°35' E 000°10'1313.4
2014-Aug-15 18:23N 50°38' E 000°31'1212.7
2014-Aug-15 17:26N 50°45' E 000°47'3110.8
2014-Aug-15 14:33N 51°04' E 001°26'1111.5
2014-Aug-15 13:33N 51°11' E 001°40'1413.3
2014-Aug-15 12:31N 51°23' E 001°51'1313.7
2014-Aug-15 11:33N 51°36' E 001°47'1514.7
2014-Aug-15 10:33N 51°51' E 001°45'1414.1
2014-Aug-15 09:33N 52°05' E 001°47'1313.3
2014-Aug-15 08:33N 52°18' E 001°50'1212.2
2014-Aug-15 07:34N 52°30' E 001°53'1010.4
2014-Aug-15 06:33N 52°40' E 001°50'10 9.9
2014-Aug-15 05:33N 52°48' E 001°39'10 9.9
2014-Aug-15 04:34N 52°55' E 001°28'10 9.8
2014-Aug-15 03:33N 53°00' E 001°14'3410.7
2014-Aug-15 00:21N 53°23' E 000°31'911.2
2014-Aug-14 23:33N 53°29' E 000°20'1212.4
2014-Aug-14 22:33N 53°35' E 000°02'1312.5
2014-Aug-14 21:33N 53°43' W 000°14'4 4.4
2014-Aug-14 20:33N 53°42' W 000°22'0 0.0
2014-Aug-14 19:34N 53°42' W 000°22'0 0.0
2014-Aug-14 18:33N 53°42' W 000°22'0 0.0
2014-Aug-14 17:33N 53°42' W 000°22'0 0.0
2014-Aug-14 16:32N 53°42' W 000°22'0 0.0
2014-Aug-14 15:32N 53°42' W 000°22'0 0.0
2014-Aug-14 14:33N 53°42' W 000°22'0 0.0
2014-Aug-14 13:33N 53°42' W 000°22'0 0.0
2014-Aug-14 12:32N 53°42' W 000°22'0 0.0
2014-Aug-14 11:31N 53°42' W 000°22'0 0.0
2014-Aug-14 10:33N 53°42' W 000°22'0 0.0
2014-Aug-14 09:33N 53°42' W 000°22'0 0.0
2014-Aug-14 08:33N 53°42' W 000°22'0 0.0
2014-Aug-14 07:33N 53°42' W 000°22'0 0.0
2014-Aug-14 06:33N 53°42' W 000°22'0 0.0
2014-Aug-14 05:33N 53°42' W 000°22'0 0.0
2014-Aug-14 04:32N 53°42' W 000°22'0 0.0
2014-Aug-14 03:23N 53°42' W 000°22'0 0.0
2014-Aug-14 02:30N 53°42' W 000°22'0 0.0
2014-Aug-14 01:33N 53°42' W 000°22'0 0.0
2014-Aug-14 00:33N 53°42' W 000°22'0 0.0
2014-Aug-13 23:32N 53°42' W 000°22'0 0.0
2014-Aug-13 22:33N 53°42' W 000°22'0 0.0
2014-Aug-13 21:33N 53°42' W 000°22'0 0.0
2014-Aug-13 20:33N 53°42' W 000°22'1 1.5
2014-Aug-13 19:33N 53°43' W 000°20'2 2.4
2014-Aug-13 18:33N 53°44' W 000°16'0 0.4
2014-Aug-13 17:33N 53°45' W 000°16'0 0.0
2014-Aug-13 16:32N 53°45' W 000°16'0 0.0
2014-Aug-13 15:33N 53°45' W 000°16'0 0.0
2014-Aug-13 14:33N 53°45' W 000°16'0 0.0
2014-Aug-13 13:33N 53°45' W 000°16'0 0.0
2014-Aug-13 12:33N 53°45' W 000°16'0 0.0
2014-Aug-13 11:33N 53°45' W 000°16'0 0.0
2014-Aug-13 10:34N 53°45' W 000°16'0 0.0
2014-Aug-13 09:33N 53°45' W 000°16'0 0.0
2014-Aug-13 08:32N 53°45' W 000°16'0 0.0
2014-Aug-13 07:33N 53°45' W 000°16'0 0.0
2014-Aug-13 06:33N 53°45' W 000°16'0 0.0
2014-Aug-13 05:33N 53°45' W 000°16'0 0.0
2014-Aug-13 04:33N 53°45' W 000°16'0 0.0
2014-Aug-13 03:32N 53°45' W 000°16'0 0.0
2014-Aug-13 02:33N 53°45' W 000°16'0 0.0
2014-Aug-13 01:33N 53°45' W 000°16'0 0.0
2014-Aug-13 00:33N 53°45' W 000°16'0 0.0
2014-Aug-12 23:32N 53°45' W 000°16'0 0.0
2014-Aug-12 22:33N 53°45' W 000°16'0 0.0
2014-Aug-12 21:33N 53°45' W 000°16'0 0.0
2014-Aug-12 20:34N 53°45' W 000°16'0 0.0
2014-Aug-12 19:34N 53°45' W 000°16'0 0.0
2014-Aug-12 18:33N 53°45' W 000°16'0 0.0
2014-Aug-12 17:33N 53°45' W 000°16'0 0.0
2014-Aug-12 16:31N 53°45' W 000°16'0 0.0
2014-Aug-12 15:33N 53°45' W 000°16'0 0.0
2014-Aug-12 14:33N 53°45' W 000°16'0 0.0
2014-Aug-12 13:33N 53°45' W 000°16'0 0.0
2014-Aug-12 12:33N 53°45' W 000°16'0 0.0
2014-Aug-12 11:33N 53°45' W 000°16'0 0.0
2014-Aug-12 10:31N 53°45' W 000°16'0 0.0
2014-Aug-12 08:32N 53°45' W 000°16'0 0.1
2014-Aug-12 07:33N 53°45' W 000°16'2 2.3
2014-Aug-12 06:33N 53°43' W 000°14'1111.2
2014-Aug-12 05:33N 53°36' E 000°01'9 8.9
2014-Aug-12 04:32N 53°33' E 000°16'9 9.5
2014-Aug-12 03:32N 53°33' E 000°32'1 1.4
2014-Aug-12 02:33N 53°35' E 000°33'154 6.1
2014-Aug-11 01:18N 53°32' E 004°52'5 7.1
2014-Aug-11 00:33N 53°34' E 005°00'8 8.2
2014-Aug-10 23:33N 53°37' E 005°13'9 8.6
2014-Aug-10 22:33N 53°39' E 005°27'9 8.9
2014-Aug-10 21:33N 53°42' E 005°42'10 9.9
2014-Aug-10 20:33N 53°45' E 005°58'5711.2
2014-Aug-10 15:30N 53°59' E 007°31'1213.1
2014-Aug-10 14:33N 54°01' E 007°51'1313.4
2014-Aug-10 13:33N 54°01' E 008°14'1313.6
2014-Aug-10 12:34N 53°58' E 008°37'1010.4
2014-Aug-10 11:33N 53°51' E 008°50'9 9.3
2014-Aug-10 10:33N 53°53' E 009°05'3 2.5
2014-Aug-10 09:33N 53°54' E 009°09'6 5.5
2014-Aug-10 08:33N 53°58' E 009°15'9 8.6
2014-Aug-10 07:33N 54°06' E 009°20'3 3.3
2014-Aug-10 06:33N 54°09' E 009°22'5 4.8
2014-Aug-10 05:33N 54°11' E 009°29'  
Track history (hours):
 
Tides and Currents Weather Stations Pressure Air Temp Water Temp Dewpoint Dewpoint Depression Visibility Wind Speed Wind Dir Waves Ship Positions

Lammy

Last reported at 2014-Aug-19 23:33 UTC. Time now 2014-Aug-20 12:46 UTC.
Position N 51°38' E 002°28'.

Length 95 m; draft 5.8 m.

Type: Cargo ship. MMSI: 245391000.

Date/timePositionNaut miles runAvg speedWind from/ knotsBaromVisibWave heightAir tempDewpointWater temp
2014-Aug-19 23:33N 51°38' E 002°28'1211.1
2014-Aug-19 22:26N 51°28' E 002°16'1011.5
2014-Aug-19 21:33N 51°19' E 002°08'1111.4
2014-Aug-19 20:33N 51°11' E 001°55'5911.8
2014-Aug-19 15:33N 50°30' E 000°48'19927.6
2014-Aug-19 08:21N 53°44' W 000°16'  
2014-Aug-16 01:17N 50°24' W 001°24'7 9.1
2014-Aug-16 00:33N 50°25' W 001°13'17 8.4
2014-Aug-15 22:33N 50°28' W 000°47'3711.8
2014-Aug-15 19:23N 50°35' E 000°10'1313.4
2014-Aug-15 18:23N 50°38' E 000°31'1212.7
2014-Aug-15 17:26N 50°45' E 000°47'3110.8
2014-Aug-15 14:33N 51°04' E 001°26'1111.5
2014-Aug-15 13:33N 51°11' E 001°40'1413.3
2014-Aug-15 12:31N 51°23' E 001°51'1313.7
2014-Aug-15 11:33N 51°36' E 001°47'1514.7
2014-Aug-15 10:33N 51°51' E 001°45'1414.1
2014-Aug-15 09:33N 52°05' E 001°47'1313.3
2014-Aug-15 08:33N 52°18' E 001°50'1212.2
2014-Aug-15 07:34N 52°30' E 001°53'1010.4
2014-Aug-15 06:33N 52°40' E 001°50'10 9.9
2014-Aug-15 05:33N 52°48' E 001°39'10 9.9
2014-Aug-15 04:34N 52°55' E 001°28'10 9.8
2014-Aug-15 03:33N 53°00' E 001°14'3410.7
2014-Aug-15 00:21N 53°23' E 000°31'911.2
2014-Aug-14 23:33N 53°29' E 000°20'1212.4
2014-Aug-14 22:33N 53°35' E 000°02'1312.5
2014-Aug-14 21:33N 53°43' W 000°14'4 4.4
2014-Aug-14 20:33N 53°42' W 000°22'0 0.0
2014-Aug-14 19:34N 53°42' W 000°22'0 0.0
2014-Aug-14 18:33N 53°42' W 000°22'0 0.0
2014-Aug-14 17:33N 53°42' W 000°22'0 0.0
2014-Aug-14 16:32N 53°42' W 000°22'0 0.0
2014-Aug-14 15:32N 53°42' W 000°22'0 0.0
2014-Aug-14 14:33N 53°42' W 000°22'0 0.0
2014-Aug-14 13:33N 53°42' W 000°22'0 0.0
2014-Aug-14 12:32N 53°42' W 000°22'0 0.0
2014-Aug-14 11:31N 53°42' W 000°22'0 0.0
2014-Aug-14 10:33N 53°42' W 000°22'0 0.0
2014-Aug-14 09:33N 53°42' W 000°22'0 0.0
2014-Aug-14 08:33N 53°42' W 000°22'0 0.0
2014-Aug-14 07:33N 53°42' W 000°22'0 0.0
2014-Aug-14 06:33N 53°42' W 000°22'0 0.0
2014-Aug-14 05:33N 53°42' W 000°22'0 0.0
2014-Aug-14 04:32N 53°42' W 000°22'0 0.0
2014-Aug-14 03:23N 53°42' W 000°22'0 0.0
2014-Aug-14 02:30N 53°42' W 000°22'0 0.0
2014-Aug-14 01:33N 53°42' W 000°22'0 0.0
2014-Aug-14 00:33N 53°42' W 000°22'0 0.0
2014-Aug-13 23:32N 53°42' W 000°22'0 0.0
2014-Aug-13 22:33N 53°42' W 000°22'0 0.0
2014-Aug-13 21:33N 53°42' W 000°22'0 0.0
2014-Aug-13 20:33N 53°42' W 000°22'1 1.5
2014-Aug-13 19:33N 53°43' W 000°20'2 2.4
2014-Aug-13 18:33N 53°44' W 000°16'0 0.4
2014-Aug-13 17:33N 53°45' W 000°16'0 0.0
2014-Aug-13 16:32N 53°45' W 000°16'0 0.0
2014-Aug-13 15:33N 53°45' W 000°16'0 0.0
2014-Aug-13 14:33N 53°45' W 000°16'0 0.0
2014-Aug-13 13:33N 53°45' W 000°16'0 0.0
2014-Aug-13 12:33N 53°45' W 000°16'0 0.0
2014-Aug-13 11:33N 53°45' W 000°16'0 0.0
2014-Aug-13 10:34N 53°45' W 000°16'0 0.0
2014-Aug-13 09:33N 53°45' W 000°16'0 0.0
2014-Aug-13 08:32N 53°45' W 000°16'0 0.0
2014-Aug-13 07:33N 53°45' W 000°16'0 0.0
2014-Aug-13 06:33N 53°45' W 000°16'0 0.0
2014-Aug-13 05:33N 53°45' W 000°16'0 0.0
2014-Aug-13 04:33N 53°45' W 000°16'0 0.0
2014-Aug-13 03:32N 53°45' W 000°16'0 0.0
2014-Aug-13 02:33N 53°45' W 000°16'0 0.0
2014-Aug-13 01:33N 53°45' W 000°16'0 0.0
2014-Aug-13 00:33N 53°45' W 000°16'0 0.0
2014-Aug-12 23:32N 53°45' W 000°16'0 0.0
2014-Aug-12 22:33N 53°45' W 000°16'0 0.0
2014-Aug-12 21:33N 53°45' W 000°16'0 0.0
2014-Aug-12 20:34N 53°45' W 000°16'0 0.0
2014-Aug-12 19:34N 53°45' W 000°16'0 0.0
2014-Aug-12 18:33N 53°45' W 000°16'0 0.0
2014-Aug-12 17:33N 53°45' W 000°16'0 0.0
2014-Aug-12 16:31N 53°45' W 000°16'0 0.0
2014-Aug-12 15:33N 53°45' W 000°16'0 0.0
2014-Aug-12 14:33N 53°45' W 000°16'0 0.0
2014-Aug-12 13:33N 53°45' W 000°16'0 0.0
2014-Aug-12 12:33N 53°45' W 000°16'0 0.0
2014-Aug-12 11:33N 53°45' W 000°16'0 0.0
2014-Aug-12 10:31N 53°45' W 000°16'0 0.0
2014-Aug-12 08:32N 53°45' W 000°16'0 0.1
2014-Aug-12 07:33N 53°45' W 000°16'2 2.3
2014-Aug-12 06:33N 53°43' W 000°14'1111.2
2014-Aug-12 05:33N 53°36' E 000°01'9 8.9
2014-Aug-12 04:32N 53°33' E 000°16'9 9.5
2014-Aug-12 03:32N 53°33' E 000°32'1 1.4
2014-Aug-12 02:33N 53°35' E 000°33'154 6.1
2014-Aug-11 01:18N 53°32' E 004°52'5 7.1
2014-Aug-11 00:33N 53°34' E 005°00'8 8.2
2014-Aug-10 23:33N 53°37' E 005°13'9 8.6
2014-Aug-10 22:33N 53°39' E 005°27'9 8.9
2014-Aug-10 21:33N 53°42' E 005°42'10 9.9
2014-Aug-10 20:33N 53°45' E 005°58'5711.2
2014-Aug-10 15:30N 53°59' E 007°31'1213.1
2014-Aug-10 14:33N 54°01' E 007°51'1313.4
2014-Aug-10 13:33N 54°01' E 008°14'1313.6
2014-Aug-10 12:34N 53°58' E 008°37'1010.4
2014-Aug-10 11:33N 53°51' E 008°50'9 9.3
2014-Aug-10 10:33N 53°53' E 009°05'3 2.5
2014-Aug-10 09:33N 53°54' E 009°09'6 5.5
2014-Aug-10 08:33N 53°58' E 009°15'9 8.6
2014-Aug-10 07:33N 54°06' E 009°20'3 3.3
2014-Aug-10 06:33N 54°09' E 009°22'5 4.8
2014-Aug-10 05:33N 54°11' E 009°29'  

Dump ship's entire track history